createdAt,value
2023-03-31T00:00:49.162Z,1.10
2023-03-31T00:02:56.777Z,0.80
2023-03-31T00:04:59.974Z,0.98
2023-03-31T00:07:01.594Z,1.15
2023-03-31T00:09:03.966Z,0.80
2023-03-31T00:11:07.465Z,0.80
2023-03-31T00:13:09.290Z,0.73
2023-03-31T00:15:11.029Z,1.00
2023-03-31T00:17:15.153Z,0.70
2023-03-31T00:19:20.584Z,1.08
2023-03-31T00:21:29.733Z,0.90
2023-03-31T00:23:31.628Z,0.88
2023-03-31T00:25:33.274Z,0.95
2023-03-31T00:27:34.788Z,0.90
2023-03-31T00:29:36.328Z,0.80
2023-03-31T00:31:39.082Z,0.70
2023-03-31T00:33:42.220Z,0.90
2023-03-31T00:35:46.077Z,0.80
2023-03-31T00:37:47.552Z,0.80
2023-03-31T00:39:49.016Z,1.10
2023-03-31T00:41:50.892Z,1.20
2023-03-31T00:44:08.551Z,1.00
2023-03-31T00:46:21.955Z,1.10
2023-03-31T00:48:24.329Z,0.80
2023-03-31T00:50:30.645Z,0.80
2023-03-31T00:52:37.534Z,0.80
2023-03-31T00:54:43.623Z,0.80
2023-03-31T00:56:48.902Z,0.93
2023-03-31T00:58:50.751Z,0.80
2023-03-31T01:00:53.044Z,0.90
2023-03-31T01:03:02.197Z,0.68
2023-03-31T01:05:03.909Z,0.70
2023-03-31T01:07:18.461Z,0.73
2023-03-31T01:09:25.105Z,0.90
2023-03-31T01:11:28.208Z,0.63
2023-03-31T01:13:32.002Z,0.80
2023-03-31T01:15:34.532Z,0.82
2023-03-31T01:17:37.431Z,0.77
2023-03-31T01:20:14.668Z,0.90
2023-03-31T01:22:47.345Z,1.15
2023-03-31T01:25:22.269Z,0.95
2023-03-31T01:27:54.140Z,1.02
2023-03-31T01:30:39.870Z,0.73
2023-03-31T01:32:59.546Z,0.80
2023-03-31T01:35:31.519Z,0.57
2023-03-31T01:38:04.117Z,0.80
2023-03-31T01:40:27.340Z,1.10
2023-03-31T01:42:44.194Z,1.08
2023-03-31T01:45:07.331Z,1.10
2023-03-31T01:47:31.706Z,0.90
2023-03-31T01:50:05.032Z,1.00
2023-03-31T01:52:21.457Z,0.98
2023-03-31T01:54:44.473Z,0.90
2023-03-31T01:56:59.398Z,1.02
2023-03-31T01:59:08.934Z,1.08
2023-03-31T02:01:21.063Z,0.88
2023-03-31T02:03:29.409Z,1.40
2023-03-31T02:05:37.700Z,1.00
2023-03-31T02:08:09.358Z,1.10
2023-03-31T02:10:13.206Z,1.10
2023-03-31T02:12:16.741Z,1.10
2023-03-31T02:14:23.535Z,0.98
2023-03-31T02:16:27.968Z,1.17
2023-03-31T02:18:33.403Z,1.10
2023-03-31T02:20:35.230Z,1.15
2023-03-31T02:22:39.695Z,1.00
2023-03-31T02:24:44.340Z,1.20
2023-03-31T02:27:06.490Z,1.10
2023-03-31T02:29:11.592Z,1.05
2023-03-31T02:31:36.451Z,1.20
2023-03-31T02:33:41.779Z,1.00
2023-03-31T02:35:43.648Z,1.13
2023-03-31T02:37:46.468Z,1.25
2023-03-31T02:39:52.479Z,1.17
2023-03-31T02:41:54.708Z,1.00
2023-03-31T02:43:56.668Z,1.08
2023-03-31T02:46:01.460Z,1.00
2023-03-31T02:48:12.363Z,1.08
2023-03-31T02:50:13.941Z,1.05
2023-03-31T02:52:27.398Z,1.20
2023-03-31T02:54:57.560Z,1.35
2023-03-31T02:57:35.291Z,1.27
2023-03-31T02:59:57.829Z,1.20
2023-03-31T03:02:11.784Z,1.20
2023-03-31T03:04:25.838Z,1.00
2023-03-31T03:06:42.363Z,1.20
2023-03-31T03:09:03.366Z,1.00
2023-03-31T03:11:26.232Z,1.00
2023-03-31T03:13:51.134Z,1.00
2023-03-31T03:16:06.091Z,1.38
2023-03-31T03:18:08.195Z,0.88
2023-03-31T03:20:12.082Z,1.50
2023-03-31T03:22:13.754Z,1.20
2023-03-31T03:24:17.096Z,0.98
2023-03-31T03:26:21.490Z,1.10
2023-03-31T03:28:23.140Z,1.50
2023-03-31T03:30:25.033Z,1.33
2023-03-31T03:32:26.985Z,1.10
2023-03-31T03:34:28.566Z,1.20
2023-03-31T03:36:30.294Z,1.25
2023-03-31T03:38:32.034Z,1.20
2023-03-31T03:40:33.931Z,1.27
2023-03-31T03:42:35.671Z,1.30
2023-03-31T03:44:37.164Z,1.10
2023-03-31T03:46:38.643Z,1.38
2023-03-31T03:48:40.429Z,1.48
2023-03-31T03:50:41.935Z,1.20
2023-03-31T03:52:43.948Z,1.15
2023-03-31T03:54:45.735Z,1.17
2023-03-31T03:56:47.524Z,1.52
2023-03-31T03:58:49.260Z,1.20
2023-03-31T04:00:50.827Z,1.00
2023-03-31T04:02:52.367Z,1.25
2023-03-31T04:04:54.270Z,1.25
2023-03-31T04:06:56.050Z,1.40
2023-03-31T04:08:57.822Z,1.05
2023-03-31T04:10:59.703Z,1.15
2023-03-31T04:13:01.355Z,1.13
2023-03-31T04:15:03.545Z,1.38
2023-03-31T04:17:05.225Z,1.20
2023-03-31T04:19:06.849Z,1.35
2023-03-31T04:21:14.077Z,1.70
2023-03-31T04:23:15.806Z,1.35
2023-03-31T04:25:17.491Z,1.00
2023-03-31T04:27:21.161Z,1.13
2023-03-31T04:29:26.745Z,1.23
2023-03-31T04:31:30.805Z,1.50
2023-03-31T04:33:34.234Z,1.20
2023-03-31T04:35:58.961Z,1.05
2023-03-31T04:38:00.433Z,1.40
2023-03-31T04:40:08.681Z,1.50
2023-03-31T04:42:10.295Z,1.60
2023-03-31T04:44:11.768Z,1.60
2023-03-31T04:46:13.865Z,1.83
2023-03-31T04:48:15.615Z,1.52
2023-03-31T04:50:17.338Z,1.30
2023-03-31T04:52:18.798Z,1.20
2023-03-31T04:54:20.607Z,1.60
2023-03-31T04:56:22.832Z,1.30
2023-03-31T04:58:24.689Z,1.40
2023-03-31T05:00:26.708Z,1.35
2023-03-31T05:02:28.411Z,1.30
2023-03-31T05:04:30.153Z,1.40
2023-03-31T05:06:32.069Z,1.50
2023-03-31T05:08:34.065Z,1.38
2023-03-31T05:10:36.038Z,1.35
2023-03-31T05:12:38.192Z,1.45
2023-03-31T05:14:39.829Z,1.30
2023-03-31T05:16:42.137Z,1.40
2023-03-31T05:18:44.209Z,1.25
2023-03-31T05:20:46.450Z,1.50
2023-03-31T05:22:50.772Z,0.98
2023-03-31T05:24:52.587Z,1.10
2023-03-31T05:26:54.633Z,1.10
2023-03-31T05:28:56.325Z,1.20
2023-03-31T05:31:01.466Z,1.15
2023-03-31T05:33:03.170Z,1.27
2023-03-31T05:35:05.450Z,1.02
2023-03-31T05:37:07.017Z,1.20
2023-03-31T05:39:09.285Z,1.45
2023-03-31T05:41:11.865Z,1.20
2023-03-31T05:43:16.556Z,1.33
2023-03-31T05:45:20.423Z,1.20
2023-03-31T05:47:23.230Z,1.10
2023-03-31T05:49:29.462Z,1.60
2023-03-31T05:51:30.976Z,1.23
2023-03-31T05:53:33.830Z,1.40
2023-03-31T05:55:38.488Z,1.30
2023-03-31T05:57:40.094Z,1.20
2023-03-31T05:59:42.600Z,1.38
2023-03-31T06:01:44.402Z,1.30
2023-03-31T06:03:46.620Z,1.15
2023-03-31T06:05:49.160Z,1.40
2023-03-31T06:07:50.687Z,1.70
2023-03-31T06:09:52.580Z,1.50
2023-03-31T06:11:54.172Z,1.38
2023-03-31T06:14:03.693Z,1.52
2023-03-31T06:16:06.420Z,1.70
2023-03-31T06:18:10.644Z,1.23
2023-03-31T06:20:24.654Z,1.40
2023-03-31T06:22:29.509Z,1.40
2023-03-31T06:24:40.389Z,1.63
2023-03-31T06:26:42.282Z,1.30
2023-03-31T06:28:46.107Z,1.70
2023-03-31T06:30:47.605Z,1.40
2023-03-31T06:32:49.114Z,1.40
2023-03-31T06:34:50.731Z,1.65
2023-03-31T06:36:53.372Z,1.45
2023-03-31T06:38:54.966Z,1.50
2023-03-31T06:40:56.392Z,1.40
2023-03-31T06:42:58.004Z,1.52
2023-03-31T06:44:59.560Z,1.60
2023-03-31T06:47:01.111Z,1.52
2023-03-31T06:49:03.079Z,1.30
2023-03-31T06:51:07.118Z,1.73
2023-03-31T06:53:09.588Z,1.50
2023-03-31T06:55:13.175Z,1.40
2023-03-31T06:57:14.971Z,1.45
2023-03-31T06:59:19.805Z,1.27
2023-03-31T07:01:21.589Z,1.60
2023-03-31T07:03:25.165Z,1.70
2023-03-31T07:05:28.645Z,1.83
2023-03-31T07:07:33.777Z,2.03
2023-03-31T07:09:38.258Z,1.63
2023-03-31T07:11:39.786Z,1.80
2023-03-31T07:13:44.054Z,1.80
2023-03-31T07:15:50.190Z,1.40
2023-03-31T07:17:53.987Z,2.05
2023-03-31T07:19:55.843Z,1.90
2023-03-31T07:21:57.338Z,1.80
2023-03-31T07:23:58.916Z,2.05
2023-03-31T07:26:02.520Z,2.22
2023-03-31T07:28:06.077Z,1.60
2023-03-31T07:30:10.778Z,2.30
2023-03-31T07:32:12.422Z,2.42
2023-03-31T07:34:14.032Z,1.90
2023-03-31T07:36:15.978Z,2.25
2023-03-31T07:38:17.843Z,2.42
2023-03-31T07:40:23.582Z,2.20
2023-03-31T07:42:25.161Z,2.28
2023-03-31T07:44:27.034Z,1.90
2023-03-31T07:46:29.364Z,2.30
2023-03-31T07:48:31.363Z,2.13
2023-03-31T07:50:33.179Z,2.03
2023-03-31T07:52:36.946Z,2.20
2023-03-31T07:54:38.389Z,2.10
2023-03-31T07:56:39.978Z,2.17
2023-03-31T07:58:41.900Z,2.00
2023-03-31T08:00:43.484Z,1.98
2023-03-31T08:02:45.388Z,2.03
2023-03-31T08:04:47.578Z,2.13
2023-03-31T08:06:49.041Z,2.00
2023-03-31T08:08:51.836Z,2.15
2023-03-31T08:10:53.501Z,2.30
2023-03-31T08:12:55.799Z,2.17
2023-03-31T08:14:57.482Z,2.55
2023-03-31T08:17:00.321Z,2.00
2023-03-31T08:19:02.131Z,2.30
2023-03-31T08:21:04.337Z,2.17
2023-03-31T08:23:09.492Z,2.65
2023-03-31T08:25:11.376Z,2.47
2023-03-31T08:27:12.934Z,2.50
2023-03-31T08:29:15.097Z,2.00
2023-03-31T08:31:19.663Z,2.20
2023-03-31T08:33:21.667Z,2.85
2023-03-31T08:35:23.296Z,2.30
2023-03-31T08:37:25.117Z,2.45
2023-03-31T08:39:27.294Z,2.50
2023-03-31T08:41:53.574Z,2.30
2023-03-31T08:43:57.102Z,2.75
2023-03-31T08:46:00.530Z,2.42
2023-03-31T08:48:22.202Z,2.50
2023-03-31T08:50:28.450Z,2.50
2023-03-31T08:52:37.558Z,2.45
2023-03-31T08:54:49.337Z,2.70
2023-03-31T08:56:51.930Z,2.67
2023-03-31T08:58:54.964Z,2.80
2023-03-31T09:01:16.912Z,2.83
2023-03-31T09:03:29.172Z,2.33
2023-03-31T09:05:59.462Z,2.65
2023-03-31T09:08:15.057Z,2.63
2023-03-31T09:10:25.505Z,2.67
2023-03-31T09:12:43.720Z,2.45
2023-03-31T09:15:04.458Z,2.92
2023-03-31T09:17:27.974Z,2.80
2023-03-31T09:20:05.305Z,3.08
2023-03-31T09:22:15.626Z,3.08
2023-03-31T09:24:23.692Z,2.45
2023-03-31T09:26:35.077Z,3.50
2023-03-31T09:28:39.559Z,3.40
2023-03-31T09:30:42.210Z,3.63
2023-03-31T09:32:45.776Z,3.80
2023-03-31T09:34:52.387Z,3.30
2023-03-31T09:36:54.050Z,3.83
2023-03-31T09:38:55.804Z,3.88
2023-03-31T09:41:01.424Z,4.82
2023-03-31T09:43:08.940Z,5.05
2023-03-31T09:45:18.664Z,4.50
2023-03-31T09:47:44.329Z,4.68
2023-03-31T09:49:53.595Z,5.15
2023-03-31T09:52:07.717Z,4.97
2023-03-31T09:54:38.948Z,5.47
2023-03-31T09:56:43.343Z,4.78
2023-03-31T09:58:48.546Z,4.53
2023-03-31T10:01:18.502Z,4.20
2023-03-31T10:03:20.008Z,3.78
2023-03-31T10:05:37.656Z,3.33
2023-03-31T10:07:39.489Z,3.10
2023-03-31T10:09:42.718Z,2.97
2023-03-31T10:12:06.188Z,2.38
2023-03-31T10:14:15.194Z,2.35
2023-03-31T10:16:47.778Z,2.40
2023-03-31T10:18:55.365Z,1.92
2023-03-31T10:20:58.474Z,2.15
2023-03-31T10:23:36.149Z,2.30
2023-03-31T10:25:40.528Z,2.35
2023-03-31T10:27:45.482Z,2.03
2023-03-31T10:29:47.215Z,2.00
2023-03-31T10:31:49.229Z,2.15
2023-03-31T10:33:52.986Z,2.30
2023-03-31T10:36:01.987Z,1.52
2023-03-31T10:38:23.094Z,2.03
2023-03-31T10:40:33.289Z,2.10
2023-03-31T10:43:17.722Z,1.88
2023-03-31T10:45:53.786Z,1.58
2023-03-31T10:48:18.373Z,4.80
2023-03-31T10:50:41.752Z,5.55
2023-03-31T10:52:48.297Z,4.53
2023-03-31T10:54:59.328Z,3.85
2023-03-31T10:57:05.979Z,2.83
2023-03-31T10:59:26.154Z,2.40
2023-03-31T11:01:52.881Z,2.17
2023-03-31T11:04:40.857Z,2.17
2023-03-31T11:07:13.556Z,1.85
2023-03-31T11:09:38.493Z,1.60
2023-03-31T11:11:59.576Z,1.75
2023-03-31T11:14:10.988Z,1.50
2023-03-31T11:16:36.889Z,1.58
2023-03-31T11:18:56.659Z,1.73
2023-03-31T11:21:41.201Z,1.30
2023-03-31T11:23:57.655Z,1.20
2023-03-31T11:26:17.146Z,1.30
2023-03-31T11:28:53.253Z,1.48
2023-03-31T11:31:36.903Z,1.58
2023-03-31T11:33:50.351Z,1.65
2023-03-31T11:36:04.405Z,1.60
2023-03-31T11:38:27.748Z,1.40
2023-03-31T11:40:51.157Z,1.50
2023-03-31T11:42:59.181Z,1.35
2023-03-31T11:45:12.609Z,1.30
2023-03-31T11:47:19.640Z,1.27
2023-03-31T11:49:30.294Z,1.30
2023-03-31T11:51:48.742Z,1.30
2023-03-31T11:53:53.603Z,1.30
2023-03-31T11:55:57.907Z,0.90
2023-03-31T11:58:13.070Z,0.85
2023-03-31T12:00:27.006Z,0.90
2023-03-31T12:03:07.946Z,1.00
2023-03-31T12:05:13.386Z,1.23
2023-03-31T12:07:31.096Z,1.10
2023-03-31T12:09:51.993Z,1.00
2023-03-31T12:12:21.012Z,1.05
2023-03-31T12:14:29.813Z,0.82
2023-03-31T12:16:43.863Z,0.90
2023-03-31T12:19:02.605Z,0.75
2023-03-31T12:21:06.394Z,1.00
2023-03-31T12:23:20.386Z,0.80
2023-03-31T12:25:28.313Z,0.80
2023-03-31T12:27:40.210Z,0.90
2023-03-31T12:29:44.834Z,0.80
2023-03-31T12:31:47.431Z,1.00
2023-03-31T12:34:00.656Z,0.60
2023-03-31T12:36:20.386Z,0.85
2023-03-31T12:38:41.850Z,0.95
2023-03-31T12:40:57.809Z,0.98
2023-03-31T12:43:15.301Z,0.90
2023-03-31T12:45:39.416Z,0.65
2023-03-31T12:47:57.931Z,0.98
2023-03-31T12:50:20.860Z,0.55
2023-03-31T12:52:47.594Z,0.80
2023-03-31T12:55:10.700Z,0.93
2023-03-31T12:57:16.886Z,0.60
2023-03-31T12:59:32.131Z,0.80
2023-03-31T13:01:33.887Z,0.77
2023-03-31T13:03:43.212Z,0.90
2023-03-31T13:05:47.400Z,0.50
2023-03-31T13:07:51.979Z,0.90
2023-03-31T13:09:58.465Z,0.60
2023-03-31T13:12:07.954Z,0.70
2023-03-31T13:14:24.941Z,0.57
2023-03-31T13:16:26.843Z,0.60
2023-03-31T13:18:33.427Z,0.47
2023-03-31T13:20:42.085Z,0.60
2023-03-31T13:22:48.616Z,0.40
2023-03-31T13:24:51.069Z,0.50
2023-03-31T13:26:59.249Z,0.50
2023-03-31T13:29:17.398Z,0.40
2023-03-31T13:31:19.243Z,0.45
2023-03-31T13:33:23.487Z,0.75
2023-03-31T13:35:31.208Z,0.60
2023-03-31T13:38:03.808Z,0.70
2023-03-31T13:40:21.295Z,0.70
2023-03-31T13:42:51.110Z,0.60
2023-03-31T13:47:53.534Z,0.60
2023-03-31T13:50:09.750Z,0.50
2023-03-31T13:52:14.963Z,0.70
2023-03-31T13:54:50.163Z,0.50
2023-03-31T13:57:16.894Z,0.80
2023-03-31T13:59:18.591Z,0.65
2023-03-31T14:01:44.136Z,0.43
2023-03-31T14:04:15.600Z,0.60
2023-03-31T14:06:35.547Z,0.65
2023-03-31T14:08:59.878Z,0.60
2023-03-31T14:11:17.424Z,0.70
2023-03-31T14:13:24.156Z,0.60
2023-03-31T14:15:25.794Z,0.90
2023-03-31T14:17:31.411Z,0.90
2023-03-31T14:19:50.907Z,0.60
2023-03-31T14:22:17.289Z,0.90
2023-03-31T14:24:37.082Z,0.70
2023-03-31T14:26:51.717Z,0.90
2023-03-31T14:29:30.644Z,0.80
2023-03-31T14:31:59.573Z,0.65
2023-03-31T14:34:29.307Z,0.90
2023-03-31T14:36:46.914Z,0.82
2023-03-31T14:38:49.097Z,0.70
2023-03-31T14:41:01.092Z,0.70
2023-03-31T14:43:05.786Z,0.70
2023-03-31T14:45:19.701Z,0.90
2023-03-31T14:47:23.550Z,0.60
2023-03-31T14:49:28.874Z,0.90
2023-03-31T14:51:31.117Z,0.90
2023-03-31T14:53:36.787Z,0.80
2023-03-31T14:55:57.205Z,0.80
2023-03-31T14:58:01.952Z,0.73
2023-03-31T15:00:12.285Z,0.73
2023-03-31T15:02:19.204Z,0.77
2023-03-31T15:04:31.796Z,0.85
2023-03-31T15:06:42.399Z,0.82
2023-03-31T15:08:45.341Z,0.80
2023-03-31T15:10:58.882Z,0.85
2023-03-31T15:13:28.160Z,0.73
2023-03-31T15:15:29.686Z,0.60
2023-03-31T15:17:40.153Z,0.80
2023-03-31T15:19:44.786Z,0.70
2023-03-31T15:21:53.491Z,0.73
2023-03-31T15:23:56.266Z,0.80
2023-03-31T15:26:05.865Z,0.70
2023-03-31T15:28:14.050Z,0.70
2023-03-31T15:30:21.070Z,0.80
2023-03-31T15:32:28.875Z,0.68
2023-03-31T15:34:34.621Z,0.57
2023-03-31T15:36:36.152Z,0.93
2023-03-31T15:38:38.095Z,0.88
2023-03-31T15:40:43.087Z,0.85
2023-03-31T15:43:01.476Z,0.98
2023-03-31T15:45:33.219Z,0.50
2023-03-31T15:47:38.714Z,0.60
2023-03-31T15:49:53.542Z,0.70
2023-03-31T15:52:00.520Z,0.93
2023-03-31T15:54:02.126Z,0.93
2023-03-31T15:56:05.349Z,0.80
2023-03-31T15:58:15.815Z,0.70
2023-03-31T16:00:39.295Z,0.98
2023-03-31T16:02:46.379Z,0.70
2023-03-31T16:04:51.241Z,0.77
2023-03-31T16:06:59.121Z,0.85
2023-03-31T16:09:15.348Z,0.98
2023-03-31T16:11:28.171Z,0.70
2023-03-31T16:13:32.045Z,0.68
2023-03-31T16:15:44.713Z,0.85
2023-03-31T16:17:53.422Z,0.70
2023-03-31T16:20:01.672Z,0.60
2023-03-31T16:22:04.797Z,0.73
2023-03-31T16:24:07.169Z,0.73
2023-03-31T16:26:08.889Z,0.88
2023-03-31T16:28:16.587Z,0.80
2023-03-31T16:30:21.866Z,0.93
2023-03-31T16:32:24.715Z,0.90
2023-03-31T16:34:31.505Z,1.00
2023-03-31T16:36:33.581Z,0.80
2023-03-31T16:38:35.196Z,0.73
2023-03-31T16:40:44.918Z,0.80
2023-03-31T16:42:46.602Z,1.00
2023-03-31T16:44:59.892Z,0.70
2023-03-31T16:47:15.042Z,0.85
2023-03-31T16:49:19.261Z,0.85
2023-03-31T16:51:21.488Z,0.88
2023-03-31T16:53:26.494Z,0.93
2023-03-31T16:55:29.678Z,0.70
2023-03-31T16:57:34.690Z,0.60
2023-03-31T16:59:38.926Z,0.98
2023-03-31T17:01:41.212Z,0.70
2023-03-31T17:03:43.183Z,0.75
2023-03-31T17:05:47.667Z,0.73
2023-03-31T17:07:49.352Z,0.73
2023-03-31T17:09:51.457Z,0.57
2023-03-31T17:11:53.076Z,0.68
2023-03-31T17:13:59.336Z,0.70
2023-03-31T17:16:16.934Z,0.80
2023-03-31T17:18:23.526Z,0.68
2023-03-31T17:20:26.358Z,0.80
2023-03-31T17:22:27.974Z,0.70
2023-03-31T17:24:29.804Z,0.55
2023-03-31T17:26:31.787Z,0.68
2023-03-31T17:28:33.813Z,0.70
2023-03-31T17:30:35.568Z,0.77
2023-03-31T17:32:38.185Z,0.90
2023-03-31T17:34:39.761Z,0.55
2023-03-31T17:36:44.946Z,0.70
2023-03-31T17:38:47.192Z,0.80
2023-03-31T17:40:48.799Z,0.50
2023-03-31T17:42:50.713Z,0.82
2023-03-31T17:44:53.308Z,0.50
2023-03-31T17:46:54.757Z,0.93
2023-03-31T17:48:58.378Z,0.60
2023-03-31T17:51:23.667Z,0.70
2023-03-31T17:53:25.217Z,0.75
2023-03-31T17:55:27.090Z,0.90
2023-03-31T17:57:28.759Z,0.90
2023-03-31T17:59:30.529Z,0.70
2023-03-31T18:01:32.462Z,0.90
2023-03-31T18:03:34.927Z,0.82
2023-03-31T18:05:37.571Z,0.80
2023-03-31T18:07:39.680Z,1.15
2023-03-31T18:09:41.161Z,0.80
2023-03-31T18:11:42.953Z,0.85
2023-03-31T18:13:44.808Z,0.98
2023-03-31T18:15:52.798Z,0.90
2023-03-31T18:17:54.799Z,0.75
2023-03-31T18:19:56.589Z,0.80
2023-03-31T18:21:58.137Z,0.90
2023-03-31T18:23:59.685Z,0.82
2023-03-31T18:26:01.698Z,0.88
2023-03-31T18:28:03.805Z,1.05
2023-03-31T18:30:08.487Z,0.93
2023-03-31T18:32:10.287Z,0.90
2023-03-31T18:34:13.619Z,1.20
2023-03-31T18:36:18.620Z,0.93
2023-03-31T18:38:20.273Z,1.17
2023-03-31T18:40:22.336Z,0.90
2023-03-31T18:42:25.665Z,1.20
2023-03-31T18:44:27.270Z,0.90
2023-03-31T18:46:29.027Z,0.95
2023-03-31T18:48:30.698Z,1.05
2023-03-31T18:50:32.773Z,0.90
2023-03-31T18:52:35.956Z,0.70
2023-03-31T18:54:37.588Z,0.90
2023-03-31T18:56:39.049Z,0.75
2023-03-31T18:58:44.034Z,0.90
2023-03-31T19:00:45.976Z,1.00
2023-03-31T19:02:48.160Z,0.90
2023-03-31T19:04:50.279Z,1.02
2023-03-31T19:06:53.320Z,0.80
2023-03-31T19:08:57.692Z,0.85
2023-03-31T19:11:08.122Z,0.90
2023-03-31T19:13:17.860Z,1.02
2023-03-31T19:15:20.812Z,0.63
2023-03-31T19:17:22.571Z,0.95
2023-03-31T19:19:24.362Z,0.90
2023-03-31T19:21:27.146Z,1.25
2023-03-31T19:23:30.384Z,1.00
2023-03-31T19:25:32.239Z,0.80
2023-03-31T19:27:34.292Z,0.65
2023-03-31T19:29:35.972Z,0.55
2023-03-31T19:31:41.559Z,1.00
2023-03-31T19:33:43.182Z,0.90
2023-03-31T19:35:47.493Z,0.70
2023-03-31T19:37:49.893Z,0.90
2023-03-31T19:39:52.074Z,0.50
2023-03-31T19:41:53.613Z,0.77
2023-03-31T19:43:55.537Z,0.60
2023-03-31T19:45:58.000Z,0.63
2023-03-31T19:47:59.606Z,0.60
2023-03-31T19:50:01.125Z,0.40
2023-03-31T19:52:03.181Z,0.57
2023-03-31T19:54:04.803Z,0.50
2023-03-31T19:56:17.313Z,0.52
2023-03-31T19:58:18.968Z,0.57
2023-03-31T20:00:20.946Z,0.50
2023-03-31T20:02:23.629Z,0.47
2023-03-31T20:04:25.566Z,0.60
2023-03-31T20:06:29.500Z,0.50
2023-03-31T20:08:31.580Z,0.47
2023-03-31T20:10:33.241Z,0.60
2023-03-31T20:12:34.786Z,0.35
2023-03-31T20:14:36.482Z,0.55
2023-03-31T20:16:38.113Z,0.50
2023-03-31T20:18:40.840Z,0.30
2023-03-31T20:20:42.977Z,0.60
2023-03-31T20:22:44.632Z,0.40
2023-03-31T20:24:46.330Z,0.50
2023-03-31T20:26:47.883Z,0.52
2023-03-31T20:28:49.805Z,0.70
2023-03-31T20:30:51.854Z,4.85
2023-03-31T20:32:53.589Z,7.38
2023-03-31T20:34:55.158Z,6.63
2023-03-31T20:36:57.127Z,5.28
2023-03-31T20:39:00.211Z,4.13
2023-03-31T20:41:04.933Z,3.00
2023-03-31T20:43:06.680Z,2.60
2023-03-31T20:45:08.971Z,1.70
2023-03-31T20:47:10.525Z,1.23
2023-03-31T20:49:12.470Z,1.10
2023-03-31T20:51:17.133Z,0.90
2023-03-31T20:53:18.940Z,0.70
2023-03-31T20:55:20.532Z,0.60
2023-03-31T20:57:22.195Z,0.50
2023-03-31T20:59:24.131Z,0.50
2023-03-31T21:01:33.873Z,0.60
2023-03-31T21:03:35.788Z,0.40
2023-03-31T21:05:47.914Z,0.40
2023-03-31T21:07:49.440Z,0.40
2023-03-31T21:09:51.287Z,0.32
2023-03-31T21:11:52.844Z,0.40
2023-03-31T21:13:54.493Z,0.60
2023-03-31T21:15:58.683Z,0.50
2023-03-31T21:18:00.581Z,0.30
2023-03-31T21:20:03.522Z,0.50
2023-03-31T21:22:05.294Z,0.50
2023-03-31T21:24:08.101Z,0.45
2023-03-31T21:26:13.280Z,0.60
2023-03-31T21:28:22.113Z,0.50
2023-03-31T21:30:26.908Z,0.35
2023-03-31T21:32:29.825Z,0.50
2023-03-31T21:34:31.571Z,0.43
2023-03-31T21:36:35.803Z,0.47
2023-03-31T21:38:37.731Z,0.50
2023-03-31T21:40:39.295Z,0.43
2023-03-31T21:42:40.865Z,0.40
2023-03-31T21:44:42.521Z,0.40
2023-03-31T21:46:47.974Z,0.50
2023-03-31T21:48:50.265Z,0.57
2023-03-31T21:50:54.880Z,0.50
2023-03-31T21:52:57.242Z,0.60
2023-03-31T21:54:58.810Z,0.35
2023-03-31T21:57:00.285Z,0.70
2023-03-31T21:59:04.271Z,0.60
2023-03-31T22:01:06.384Z,0.50
2023-03-31T22:03:25.708Z,0.40
2023-03-31T22:05:31.414Z,0.60
2023-03-31T22:07:33.201Z,0.47
2023-03-31T22:09:34.776Z,0.68
2023-03-31T22:11:36.520Z,0.55
2023-03-31T22:13:38.916Z,0.70
2023-03-31T22:15:42.195Z,0.60
2023-03-31T22:17:45.664Z,0.60
2023-03-31T22:19:48.125Z,0.63
2023-03-31T22:21:50.475Z,0.60
2023-03-31T22:23:53.532Z,0.73
2023-03-31T22:25:55.460Z,0.50
2023-03-31T22:27:57.043Z,0.70
2023-03-31T22:29:59.225Z,0.77
2023-03-31T22:32:01.061Z,0.70
2023-03-31T22:34:08.208Z,0.60
2023-03-31T22:36:09.858Z,0.52
2023-03-31T22:38:14.483Z,0.68
2023-03-31T22:40:16.081Z,0.55
2023-03-31T22:42:17.613Z,0.63
2023-03-31T22:44:19.352Z,0.63
2023-03-31T22:46:21.166Z,0.65
2023-03-31T22:48:22.883Z,0.52
2023-03-31T22:50:24.630Z,0.60
2023-03-31T22:52:26.286Z,0.50
2023-03-31T22:54:27.788Z,0.57
2023-03-31T22:56:31.852Z,0.77
2023-03-31T22:58:33.630Z,0.60
2023-03-31T23:00:35.679Z,0.98
2023-03-31T23:02:37.330Z,0.50
2023-03-31T23:04:39.150Z,0.90
2023-03-31T23:06:40.563Z,0.45
2023-03-31T23:08:43.647Z,0.43
2023-03-31T23:10:59.297Z,0.68
2023-03-31T23:13:01.244Z,0.57
2023-03-31T23:15:03.788Z,0.50
2023-03-31T23:17:05.568Z,0.60
2023-03-31T23:19:07.349Z,0.50
2023-03-31T23:21:12.859Z,0.60
2023-03-31T23:23:14.548Z,0.55
2023-03-31T23:25:16.257Z,0.70
2023-03-31T23:27:18.868Z,0.70
2023-03-31T23:29:20.467Z,0.52
2023-03-31T23:31:29.063Z,0.55
2023-03-31T23:33:30.597Z,0.63
2023-03-31T23:35:32.418Z,0.75
2023-03-31T23:37:34.039Z,0.50
2023-03-31T23:39:35.800Z,0.70
2023-03-31T23:41:37.377Z,0.63
2023-03-31T23:43:39.755Z,0.50
2023-03-31T23:45:41.669Z,0.55
2023-03-31T23:47:43.977Z,0.80
2023-03-31T23:49:45.944Z,0.77
2023-03-31T23:51:48.940Z,0.55
2023-03-31T23:53:50.662Z,0.65
2023-03-31T23:55:54.168Z,0.60
2023-03-31T23:57:57.562Z,0.60
2023-03-31T23:59:59.066Z,0.90
